createdAt,value
2018-12-24T00:00:25.618Z,0.2
2018-12-24T00:01:15.400Z,0.2
2018-12-24T00:02:05.478Z,0.2
2018-12-24T00:02:55.795Z,0.2
2018-12-24T00:03:45.845Z,0.2
2018-12-24T00:04:35.622Z,0.3
2018-12-24T00:05:26.210Z,0.3
2018-12-24T00:06:16.025Z,0.3
2018-12-24T00:07:05.830Z,0.3
2018-12-24T00:07:56.122Z,0.3
2018-12-24T00:08:45.916Z,0.3
2018-12-24T00:09:36.247Z,0.3
2018-12-24T00:10:26.307Z,0.3
2018-12-24T00:11:16.360Z,0.3
2018-12-24T00:12:09.011Z,0.4
2018-12-24T00:12:56.197Z,0.3
2018-12-24T00:13:46.256Z,0.4
2018-12-24T00:14:36.589Z,0.4
2018-12-24T00:32:41.956Z,0.5
2018-12-24T00:33:31.493Z,0.6
2018-12-24T00:34:21.277Z,0.6
2018-12-24T00:35:11.613Z,0.6
2018-12-24T00:36:01.388Z,0.6
2018-12-24T00:36:51.453Z,0.6
2018-12-24T00:37:41.791Z,0.6
2018-12-24T00:38:31.320Z,0.6
2018-12-24T00:39:21.618Z,0.6
2018-12-24T00:40:11.937Z,0.6
2018-12-24T00:41:01.727Z,0.6
2018-12-24T00:41:52.054Z,0.6
2018-12-24T00:42:42.390Z,0.6
2018-12-24T00:43:32.165Z,0.6
2018-12-24T00:44:22.220Z,0.6
2018-12-24T00:45:12.346Z,0.6
2018-12-24T00:46:02.346Z,0.7
2018-12-24T00:46:52.393Z,0.6
2018-12-24T00:47:42.462Z,0.7
2018-12-24T00:48:32.507Z,0.6
2018-12-24T00:49:22.565Z,0.7
2018-12-24T00:50:12.355Z,0.7
2018-12-24T00:51:02.701Z,0.7
2018-12-24T00:51:52.465Z,0.7
2018-12-24T00:52:42.797Z,0.7
2018-12-24T00:53:32.850Z,0.7
2018-12-24T00:54:22.635Z,0.7
2018-12-24T00:55:12.767Z,0.7
2018-12-24T00:56:03.035Z,0.7
2018-12-24T00:56:53.075Z,0.8
2018-12-24T00:57:43.139Z,0.8
2018-12-24T00:58:32.917Z,0.8
2018-12-24T00:59:23.256Z,0.8
2018-12-24T01:00:13.312Z,0.8
2018-12-24T01:01:03.362Z,0.8
2018-12-24T01:01:53.440Z,0.8
2018-12-24T01:02:43.469Z,0.8
2018-12-24T01:03:33.784Z,0.8
2018-12-24T01:04:23.632Z,0.8
2018-12-24T01:05:13.648Z,0.8
2018-12-24T01:06:03.434Z,0.8
2018-12-24T01:06:53.484Z,0.8
2018-12-24T01:07:43.545Z,0.8
2018-12-24T01:08:34.227Z,0.8
2018-12-24T01:09:24.010Z,0.8
2018-12-24T01:10:13.987Z,0.8
2018-12-24T01:11:03.762Z,0.8
2018-12-24T01:11:54.104Z,0.8
2018-12-24T01:12:43.881Z,0.8
2018-12-24T01:13:34.227Z,0.8
2018-12-24T01:14:24.281Z,0.8
2018-12-24T01:15:14.631Z,0.8
2018-12-24T01:16:04.394Z,0.7
2018-12-24T01:16:54.457Z,0.7
2018-12-24T01:17:44.223Z,0.7
2018-12-24T01:18:34.281Z,0.7
2018-12-24T01:19:24.339Z,0.7
2018-12-24T01:20:14.673Z,0.7
2018-12-24T01:21:04.461Z,0.7
2018-12-24T01:21:54.786Z,0.7
2018-12-24T01:22:44.843Z,0.7
2018-12-24T01:23:34.906Z,0.7
2018-12-24T01:24:24.697Z,0.7
2018-12-24T01:25:15.018Z,0.6
2018-12-24T01:26:05.067Z,0.7
2018-12-24T01:26:55.126Z,0.7
2018-12-24T01:27:45.243Z,0.6
2018-12-24T01:28:34.965Z,0.6
2018-12-24T01:29:25.033Z,0.6
2018-12-24T01:30:15.368Z,0.6
2018-12-24T01:31:05.698Z,0.6
2018-12-24T01:31:55.190Z,0.6
2018-12-24T01:32:45.525Z,0.6
2018-12-24T01:33:35.593Z,0.6
2018-12-24T01:34:25.647Z,0.6
2018-12-24T01:35:15.691Z,0.6
2018-12-24T01:36:05.477Z,0.6
2018-12-24T01:36:55.862Z,0.6
2018-12-24T01:37:45.875Z,0.6
2018-12-24T01:38:35.922Z,0.6
2018-12-24T01:39:25.987Z,0.6
2018-12-24T01:40:15.760Z,0.6
2018-12-24T01:41:05.550Z,0.6
2018-12-24T01:41:56.149Z,0.5
2018-12-24T01:42:46.219Z,0.5
2018-12-24T01:43:35.956Z,0.5
2018-12-24T01:44:26.324Z,0.5
2018-12-24T01:45:16.632Z,0.5
2018-12-24T01:46:06.493Z,0.5
2018-12-24T01:46:56.514Z,0.4
2018-12-24T01:47:46.551Z,0.4
2018-12-24T01:48:36.961Z,0.4
2018-12-24T01:49:26.683Z,0.4
2018-12-24T01:50:16.722Z,0.4
2018-12-24T01:51:06.775Z,0.4
2018-12-24T01:51:56.570Z,0.4
2018-12-24T01:52:46.897Z,0.3
2018-12-24T01:53:37.194Z,0.3
2018-12-24T01:54:26.768Z,0.3
2018-12-24T01:55:16.511Z,0.3
2018-12-24T01:56:07.120Z,0.3
2018-12-24T01:56:57.196Z,0.3
2018-12-24T01:57:46.956Z,0.3
2018-12-24T01:58:36.753Z,0.3
2018-12-24T01:59:27.357Z,0.2
2018-12-24T02:00:17.495Z,0.2
2018-12-24T02:01:07.466Z,0.2
2018-12-24T02:01:57.338Z,0.1
2018-12-24T02:02:47.030Z,0.1
2018-12-24T02:03:37.639Z,0.1
2018-12-24T02:04:27.689Z,0.1
2018-12-24T02:05:17.750Z,0.1
2018-12-24T02:06:07.807Z,0.1
2018-12-24T02:06:57.860Z,0.1
2018-12-24T02:07:47.921Z,0.1
2018-12-24T02:08:37.700Z,0.1
2018-12-24T02:09:28.009Z,0.1
2018-12-24T02:10:18.085Z,0
2018-12-24T02:11:07.590Z,0
2018-12-24T02:11:58.202Z,0
2018-12-24T02:12:48.262Z,0
2018-12-24T02:13:38.317Z,-0.1
2018-12-24T02:14:28.372Z,-0.1
2018-12-24T02:15:18.457Z,-0.1
2018-12-24T02:16:08.482Z,-0.1
2018-12-24T02:16:58.577Z,-0.1
2018-12-24T02:17:48.154Z,-0.1
2018-12-24T02:18:38.379Z,-0.1
2018-12-24T02:19:28.812Z,-0.1
2018-12-24T02:20:18.499Z,-0.1
2018-12-24T02:21:08.852Z,-0.2
2018-12-24T02:21:58.892Z,-0.2
2018-12-24T02:22:49.069Z,-0.2
2018-12-24T02:23:38.729Z,-0.2
2018-12-24T02:24:29.126Z,-0.2
2018-12-24T02:25:19.121Z,-0.2
2018-12-24T02:26:09.269Z,-0.3
2018-12-24T02:26:58.944Z,-0.3
2018-12-24T02:27:49.249Z,-0.3
2018-12-24T02:28:39.349Z,-0.3
2018-12-24T02:29:29.399Z,-0.3
2018-12-24T02:30:19.470Z,-0.3
2018-12-24T02:31:09.666Z,-0.3
2018-12-24T02:31:59.564Z,-0.3
2018-12-24T02:32:49.078Z,-0.3
2018-12-24T02:33:39.703Z,-0.3
2018-12-24T02:34:29.737Z,-0.3
2018-12-24T02:35:19.256Z,-0.3
2018-12-24T02:36:09.593Z,-0.3
2018-12-24T02:36:59.924Z,-0.4
2018-12-24T02:37:49.986Z,-0.4
2018-12-24T02:38:39.788Z,-0.4
2018-12-24T02:39:30.412Z,-0.4
2018-12-24T02:40:20.176Z,-0.4
2018-12-24T02:41:10.191Z,-0.4
2018-12-24T02:41:59.996Z,-0.4
2018-12-24T02:42:54.209Z,-0.4
2018-12-24T02:43:40.390Z,-0.4
2018-12-24T02:44:30.430Z,-0.4
2018-12-24T02:45:19.989Z,-0.4
2018-12-24T02:46:10.256Z,-0.4
2018-12-24T02:47:00.327Z,-0.4
2018-12-24T02:47:50.665Z,-0.4
2018-12-24T02:48:40.167Z,-0.4
2018-12-24T02:49:30.772Z,-0.4
2018-12-24T02:50:21.170Z,-0.4
2018-12-24T02:51:10.632Z,-0.4
2018-12-24T02:52:00.680Z,-0.4
2018-12-24T02:52:50.995Z,-0.4
2018-12-24T02:53:41.073Z,-0.4
2018-12-24T02:54:31.121Z,-0.4
2018-12-24T02:55:21.162Z,-0.4
2018-12-24T02:56:11.229Z,-0.4
2018-12-24T02:57:01.293Z,-0.4
2018-12-24T02:57:51.326Z,-0.4
2018-12-24T02:58:41.389Z,-0.4
2018-12-24T02:59:31.440Z,-0.5
2018-12-24T03:00:21.509Z,-0.5
2018-12-24T03:01:11.686Z,-0.5
2018-12-24T03:02:01.065Z,-0.5
2018-12-24T03:02:51.407Z,-0.5
2018-12-24T03:03:41.465Z,-0.5
2018-12-24T03:04:31.807Z,-0.5
2018-12-24T03:05:21.581Z,-0.5
2018-12-24T03:06:11.927Z,-0.5
2018-12-24T03:07:01.686Z,-0.5
2018-12-24T03:07:52.030Z,-0.5
2018-12-24T03:08:42.110Z,-0.5
2018-12-24T03:09:31.856Z,-0.5
2018-12-24T03:10:21.915Z,-0.5
2018-12-24T03:11:11.706Z,-0.5
2018-12-24T03:12:02.032Z,-0.5
2018-12-24T03:13:03.344Z,-0.5
2018-12-24T03:13:42.509Z,-0.5
2018-12-24T03:14:32.499Z,-0.5
2018-12-24T03:15:22.526Z,-0.5
2018-12-24T03:16:12.454Z,-0.5
2018-12-24T03:17:02.374Z,-0.5
2018-12-24T03:17:52.669Z,-0.5
2018-12-24T03:18:42.743Z,-0.5
2018-12-24T03:19:32.828Z,-0.4
2018-12-24T03:20:22.876Z,-0.4
2018-12-24T03:21:12.482Z,-0.4
2018-12-24T03:22:03.009Z,-0.4
2018-12-24T03:22:53.058Z,-0.4
2018-12-24T03:23:43.378Z,-0.4
2018-12-24T03:24:33.175Z,-0.4
2018-12-24T03:25:22.949Z,-0.4
2018-12-24T03:26:13.323Z,-0.4
2018-12-24T03:27:03.362Z,-0.4
2018-12-24T03:27:53.659Z,-0.4
2018-12-24T03:28:43.463Z,-0.4
2018-12-24T03:29:33.511Z,-0.4
2018-12-24T03:30:23.617Z,-0.4
2018-12-24T03:31:13.693Z,-0.3
2018-12-24T03:32:03.508Z,-0.4
2018-12-24T03:32:53.490Z,-0.4
2018-12-24T03:33:43.250Z,-0.3
2018-12-24T03:34:33.848Z,-0.3
2018-12-24T03:35:23.971Z,-0.3
2018-12-24T03:36:13.694Z,-0.3
2018-12-24T03:37:04.042Z,-0.3
2018-12-24T03:37:54.068Z,-0.3
2018-12-24T03:38:44.132Z,-0.3
2018-12-24T03:39:34.190Z,-0.3
2018-12-24T03:40:24.392Z,-0.3
2018-12-24T03:41:14.290Z,-0.3
2018-12-24T03:42:04.092Z,-0.3
2018-12-24T03:42:54.400Z,-0.3
2018-12-24T03:43:44.744Z,-0.3
2018-12-24T03:44:34.793Z,-0.3
2018-12-24T03:45:24.587Z,-0.3
2018-12-24T03:46:14.634Z,-0.3
2018-12-24T03:47:04.697Z,-0.3
2018-12-24T03:47:54.757Z,-0.3
2018-12-24T03:48:43.984Z,-0.3
2018-12-24T03:49:34.845Z,-0.3
2018-12-24T03:50:24.911Z,-0.3
2018-12-24T03:51:14.740Z,-0.3
2018-12-24T03:52:05.477Z,-0.3
2018-12-24T03:52:54.577Z,-0.3
2018-12-24T03:53:45.149Z,-0.3
2018-12-24T03:54:35.226Z,-0.3
2018-12-24T03:55:25.271Z,-0.4
2018-12-24T03:56:15.576Z,-0.3
2018-12-24T03:57:05.374Z,-0.3
2018-12-24T03:57:55.424Z,-0.3
2018-12-24T03:58:45.201Z,-0.3
2018-12-24T03:59:35.271Z,-0.3
2018-12-24T04:00:25.606Z,-0.3
2018-12-24T04:01:15.390Z,-0.3
2018-12-24T04:02:05.490Z,-0.3
2018-12-24T04:02:55.499Z,-0.3
2018-12-24T04:03:45.856Z,-0.3
2018-12-24T04:04:35.895Z,-0.4
2018-12-24T04:05:25.948Z,-0.4
2018-12-24T04:06:16.255Z,-0.4
2018-12-24T04:07:06.073Z,-0.4
2018-12-24T04:07:56.232Z,-0.4
2018-12-24T04:08:46.163Z,-0.4
2018-12-24T04:09:36.483Z,-0.4
2018-12-24T04:10:26.270Z,-0.3
2018-12-24T04:11:16.425Z,-0.4
2018-12-24T04:12:06.408Z,-0.3
2018-12-24T04:12:56.466Z,-0.3
2018-12-24T04:13:46.517Z,-0.3
2018-12-24T04:14:36.668Z,-0.4
2018-12-24T04:15:26.645Z,-0.4
2018-12-24T04:16:16.682Z,-0.4
2018-12-24T04:17:06.770Z,-0.4
2018-12-24T04:17:56.776Z,-0.4
2018-12-24T04:18:46.862Z,-0.4
2018-12-24T04:19:36.362Z,-0.4
2018-12-24T04:20:26.407Z,-0.4
2018-12-24T04:21:17.020Z,-0.5
2018-12-24T04:22:07.085Z,-0.5
2018-12-24T04:22:57.152Z,-0.4
2018-12-24T04:23:46.907Z,-0.4
2018-12-24T04:24:37.269Z,-0.5
2018-12-24T04:25:27.995Z,-0.5
2018-12-24T04:26:17.160Z,-0.4
2018-12-24T04:27:07.165Z,-0.5
2018-12-24T04:27:57.219Z,-0.5
2018-12-24T04:28:47.251Z,-0.5
2018-12-24T04:29:37.589Z,-0.5
2018-12-24T04:30:27.666Z,-0.5
2018-12-24T04:31:17.844Z,-0.6
2018-12-24T04:32:07.496Z,-0.6
2018-12-24T04:32:57.806Z,-0.6
2018-12-24T04:33:47.966Z,-0.6
2018-12-24T04:34:37.654Z,-0.6
2018-12-24T04:35:28.355Z,-0.6
2018-12-24T04:36:18.021Z,-0.6
2018-12-24T04:37:07.577Z,-0.6
2018-12-24T04:37:57.887Z,-0.6
2018-12-24T04:38:48.256Z,-0.6
2018-12-24T04:39:38.272Z,-0.6
2018-12-24T04:40:28.058Z,-0.7
2018-12-24T04:41:18.649Z,-0.7
2018-12-24T04:42:07.896Z,-0.7
2018-12-24T04:42:58.231Z,-0.8
2018-12-24T04:43:48.291Z,-0.8
2018-12-24T04:44:38.647Z,-0.8
2018-12-24T05:01:58.730Z,-1
2018-12-24T05:02:48.482Z,-1.1
2018-12-24T05:03:38.532Z,-1.1
2018-12-24T05:04:28.028Z,-1.1
2018-12-24T05:05:18.100Z,-1.1
2018-12-24T05:06:08.718Z,-1.1
2018-12-24T05:06:58.947Z,-1.1
2018-12-24T05:07:49.019Z,-1.1
2018-12-24T05:08:39.082Z,-1.1
2018-12-24T05:09:29.409Z,-1.1
2018-12-24T05:10:19.297Z,-1.1
2018-12-24T05:11:09.231Z,-1.1
2018-12-24T05:11:59.562Z,-1.1
2018-12-24T05:12:49.646Z,-1.2
2018-12-24T05:13:42.756Z,-1.2
2018-12-24T05:14:29.731Z,-1.2
2018-12-24T05:15:19.795Z,-1.2
2018-12-24T05:16:09.854Z,-1.3
2018-12-24T05:17:00.174Z,-1.3
2018-12-24T05:17:49.693Z,-1.3
2018-12-24T05:18:40.032Z,-1.3
2018-12-24T05:19:30.086Z,-1.3
2018-12-24T05:20:20.136Z,-1.3
2018-12-24T05:21:10.189Z,-1.3
2018-12-24T05:22:00.241Z,-1.3
2018-12-24T05:22:50.038Z,-1.3
2018-12-24T05:23:40.360Z,-1.3
2018-12-24T05:24:30.138Z,-1.3
2018-12-24T05:25:20.475Z,-1.3
2018-12-24T05:26:10.250Z,-1.3
2018-12-24T05:27:00.591Z,-1.3
2018-12-24T05:27:50.362Z,-1.4
2018-12-24T05:28:40.702Z,-1.4
2018-12-24T05:29:30.758Z,-1.4
2018-12-24T05:30:20.817Z,-1.4
2018-12-24T05:31:10.911Z,-1.4
2018-12-24T05:32:00.918Z,-1.4
2018-12-24T05:32:50.710Z,-1.4
2018-12-24T05:33:40.774Z,-1.4
2018-12-24T05:34:31.103Z,-1.4
2018-12-24T05:35:20.598Z,-1.4
2018-12-24T05:36:11.043Z,-1.4
2018-12-24T05:37:01.262Z,-1.4
2018-12-24T05:37:51.305Z,-1.4
2018-12-24T05:38:41.110Z,-1.4
2018-12-24T05:39:31.155Z,-1.4
2018-12-24T05:40:21.225Z,-1.3
2018-12-24T05:41:11.542Z,-1.3
2018-12-24T05:42:01.335Z,-1.3
2018-12-24T05:42:51.638Z,-1.3
2018-12-24T05:43:49.781Z,-1.3
2018-12-24T05:44:31.780Z,-1.3
2018-12-24T05:45:21.852Z,-1.3
2018-12-24T05:46:11.622Z,-1.2
2018-12-24T05:47:01.677Z,-1.2
2018-12-24T05:47:52.047Z,-1.2
2018-12-24T05:48:41.779Z,-1.2
2018-12-24T05:49:32.112Z,-1.2
2018-12-24T05:50:22.478Z,-1.2
2018-12-24T05:51:11.947Z,-1.2
2018-12-24T05:52:02.292Z,-1.1
2018-12-24T05:52:52.339Z,-1.1
2018-12-24T05:53:42.403Z,-1.1
2018-12-24T05:54:32.202Z,-1.1
2018-12-24T05:55:22.515Z,-1.1
2018-12-24T05:56:12.567Z,-1.1
2018-12-24T05:57:02.632Z,-1.1
2018-12-24T05:57:52.696Z,-1.1
2018-12-24T05:58:42.736Z,-1.1
2018-12-24T05:59:32.516Z,-1.1
2018-12-24T06:00:22.853Z,-1.1
2018-12-24T06:01:12.912Z,-1.1
2018-12-24T06:02:02.696Z,-1.1
2018-12-24T06:02:53.079Z,-1.1
2018-12-24T06:03:43.081Z,-1.1
2018-12-24T06:04:33.132Z,-1.1
2018-12-24T06:05:23.204Z,-1.1
2018-12-24T06:06:13.242Z,-1.1
2018-12-24T06:07:03.299Z,-1.1
2018-12-24T06:07:53.086Z,-1.1
2018-12-24T06:08:43.419Z,-1.1
2018-12-24T06:09:33.191Z,-1.1
2018-12-24T06:10:23.270Z,-1.1
2018-12-24T06:11:13.299Z,-1.1
2018-12-24T06:12:03.649Z,-1.1
2018-12-24T06:12:53.701Z,-1
2018-12-24T06:13:43.753Z,-1
2018-12-24T06:14:33.806Z,-1
2018-12-24T06:17:54.336Z,-0.9
2018-12-24T06:18:44.348Z,-0.9
2018-12-24T06:19:34.222Z,-0.9
2018-12-24T06:20:23.926Z,-0.9
2018-12-24T06:21:14.265Z,-0.8
2018-12-24T06:22:04.041Z,-0.8
2018-12-24T06:22:54.208Z,-0.8
2018-12-24T06:23:44.163Z,-0.8
2018-12-24T06:24:34.487Z,-0.8
2018-12-24T06:25:24.566Z,-0.8
2018-12-24T06:26:14.604Z,-0.8
2018-12-24T06:27:04.658Z,-0.8
2018-12-24T06:27:54.715Z,-0.8
2018-12-24T06:28:44.458Z,-0.8
2018-12-24T06:29:34.826Z,-0.8
2018-12-24T06:30:24.879Z,-0.7
2018-12-24T06:31:14.650Z,-0.7
2018-12-24T06:32:04.732Z,-0.7
2018-12-24T06:32:54.773Z,-0.6
2018-12-24T06:33:45.117Z,-0.6
2018-12-24T06:34:34.892Z,-0.6
2018-12-24T06:35:25.220Z,-0.5
2018-12-24T06:36:15.278Z,-0.4
2018-12-24T06:37:05.330Z,-0.4
2018-12-24T06:37:55.392Z,-0.4
2018-12-24T06:38:45.695Z,-0.4
2018-12-24T06:39:35.217Z,-0.3
2018-12-24T06:40:25.279Z,-0.3
2018-12-24T06:41:15.605Z,-0.3
2018-12-24T06:42:05.902Z,-0.2
2018-12-24T06:42:55.440Z,-0.2
2018-12-24T06:43:46.022Z,-0.1
2018-12-24T06:44:35.841Z,-0.1
2018-12-24T06:45:25.339Z,-0.1
2018-12-24T06:46:15.189Z,-0.1
2018-12-24T06:47:05.247Z,0
2018-12-24T06:47:56.090Z,0
2018-12-24T06:48:46.118Z,0
2018-12-24T06:49:36.169Z,0.1
2018-12-24T06:50:26.229Z,0.1
2018-12-24T06:51:16.395Z,0.2
2018-12-24T06:52:06.329Z,0.3
2018-12-24T06:52:56.113Z,0.3
2018-12-24T06:53:45.620Z,0.3
2018-12-24T06:54:36.244Z,0.3
2018-12-24T06:55:26.280Z,0.4
2018-12-24T06:56:16.336Z,0.4
2018-12-24T06:57:06.684Z,0.4
2018-12-24T06:57:56.734Z,0.5
2018-12-24T06:58:46.815Z,0.6
2018-12-24T06:59:37.150Z,0.7
2018-12-24T07:00:26.912Z,0.8
2018-12-24T07:01:16.513Z,0.8
2018-12-24T07:02:06.738Z,0.9
2018-12-24T07:02:56.534Z,0.9
2018-12-24T07:03:46.851Z,1
2018-12-24T07:04:37.182Z,1.1
2018-12-24T07:05:27.294Z,1.2
2018-12-24T07:06:16.757Z,1.3
2018-12-24T07:07:06.815Z,1.4
2018-12-24T07:07:56.876Z,1.5
2018-12-24T07:08:47.466Z,1.6
2018-12-24T07:09:37.524Z,1.8
2018-12-24T07:10:27.574Z,1.9
2018-12-24T07:11:17.360Z,2
2018-12-24T07:12:07.704Z,2.2
2018-12-24T07:12:56.939Z,2.3
2018-12-24T07:13:47.531Z,2.4
2018-12-24T07:14:37.865Z,2.6
2018-12-24T07:15:27.652Z,2.8
2018-12-24T07:16:17.969Z,2.9
2018-12-24T07:17:08.026Z,3
2018-12-24T07:17:58.189Z,3.1
2018-12-24T07:18:48.149Z,3.3
2018-12-24T07:19:37.921Z,3.4
2018-12-24T07:20:28.001Z,3.6
2018-12-24T07:21:18.033Z,3.7
2018-12-24T07:22:08.363Z,3.9
2018-12-24T07:22:57.884Z,4.1
2018-12-24T07:23:48.488Z,4.3
2018-12-24T07:24:38.282Z,4.5
2018-12-24T07:25:28.606Z,4.8
2018-12-24T07:26:18.771Z,4.9
2018-12-24T07:27:08.704Z,5.2
2018-12-24T07:27:59.019Z,5.5
2018-12-24T07:28:48.540Z,5.8
2018-12-24T07:29:38.873Z,6.2
2018-12-24T07:30:28.938Z,6.5
2018-12-24T07:31:19.646Z,6.8
2018-12-24T07:32:09.056Z,7.3
2018-12-24T07:32:59.158Z,7.6
2018-12-24T07:33:49.167Z,8
2018-12-24T07:34:39.472Z,8.4
2018-12-24T07:35:29.275Z,8.9
2018-12-24T07:36:19.705Z,9.3
2018-12-24T07:37:09.390Z,9.8
2018-12-24T07:37:59.172Z,10.2
2018-12-24T07:38:48.969Z,10.7
2018-12-24T07:39:39.290Z,11.1
2018-12-24T07:40:29.860Z,11.5
2018-12-24T07:41:19.647Z,11.9
2018-12-24T07:42:09.717Z,12.2
2018-12-24T07:42:59.784Z,12.6
2018-12-24T07:43:49.569Z,12.9
2018-12-24T07:44:39.615Z,13.2
2018-12-24T07:45:29.999Z,13.4
2018-12-24T07:46:20.064Z,13.6
2018-12-24T07:47:10.071Z,13.9
2018-12-24T07:48:00.118Z,14.1
2018-12-24T07:48:49.898Z,14.3
2018-12-24T07:49:40.227Z,14.5
2018-12-24T07:50:30.544Z,14.7
2018-12-24T07:51:20.399Z,14.8
2018-12-24T07:52:10.229Z,14.9
2018-12-24T07:53:00.456Z,15
2018-12-24T07:53:50.239Z,15.1
2018-12-24T07:54:40.292Z,15.2
2018-12-24T07:55:30.631Z,15.3
2018-12-24T07:56:20.411Z,15.4
2018-12-24T07:57:10.748Z,15.4
2018-12-24T07:58:00.524Z,15.5
2018-12-24T07:58:50.866Z,15.6
2018-12-24T07:59:40.636Z,15.7
2018-12-24T08:00:30.693Z,15.8
2018-12-24T08:01:21.020Z,15.8
2018-12-24T08:02:11.376Z,15.9
2018-12-24T08:03:01.148Z,15.9
2018-12-24T08:03:50.923Z,16
2018-12-24T08:04:41.268Z,16.1
2018-12-24T08:05:31.308Z,16.1
2018-12-24T08:06:21.372Z,16.1
2018-12-24T08:07:11.165Z,16.1
2018-12-24T08:08:01.206Z,16.1
2018-12-24T08:08:51.532Z,16.1
2018-12-24T08:09:41.053Z,16.1
2018-12-24T08:10:31.645Z,16.1
2018-12-24T08:11:21.442Z,16.1
2018-12-24T08:12:13.871Z,16
2018-12-24T08:13:01.828Z,16
2018-12-24T08:13:51.887Z,16
2018-12-24T08:14:41.970Z,16
2018-12-24T08:15:31.716Z,16.1
2018-12-24T08:16:22.047Z,16.1
2018-12-24T08:17:12.113Z,16.1
2018-12-24T08:18:02.159Z,16.1
2018-12-24T08:18:51.940Z,16.1
2018-12-24T08:19:41.992Z,16.1
2018-12-24T08:20:32.384Z,16.1
2018-12-24T08:21:22.114Z,16.1
2018-12-24T08:22:12.449Z,16.1
2018-12-24T08:23:02.499Z,16.2
2018-12-24T08:23:52.552Z,16.2
2018-12-24T08:24:42.617Z,16.3
2018-12-24T08:25:32.394Z,16.3
2018-12-24T08:26:22.730Z,16.3
2018-12-24T08:27:12.501Z,16.3
2018-12-24T08:28:02.559Z,16.3
2018-12-24T08:28:52.891Z,16.3
2018-12-24T08:29:42.954Z,16.4
2018-12-24T08:30:32.737Z,16.5
2018-12-24T08:31:22.796Z,16.6
2018-12-24T08:32:13.567Z,16.8
2018-12-24T08:33:03.184Z,16.9
2018-12-24T08:34:43.011Z,17.2
2018-12-24T08:35:33.078Z,17.4
2018-12-24T08:36:23.122Z,17.8
2018-12-24T08:37:13.523Z,18
2018-12-24T08:38:03.514Z,18.3
2018-12-24T08:38:53.579Z,18.6
2018-12-24T08:39:43.636Z,18.9
2018-12-24T08:40:33.676Z,19.3
2018-12-24T08:41:23.994Z,19.5
2018-12-24T08:42:13.533Z,19.8
2018-12-24T08:43:03.851Z,20.1
2018-12-24T08:43:53.360Z,20.3
2018-12-24T08:44:44.168Z,20.5
2018-12-24T08:45:33.738Z,20.8
2018-12-24T08:47:14.130Z,21.4
2018-12-24T08:48:03.802Z,21.8
2018-12-24T08:48:54.246Z,22.2
2018-12-24T08:49:44.026Z,22.6
2018-12-24T08:50:34.081Z,23.1
2018-12-24T08:51:24.411Z,23.6
2018-12-24T08:52:14.194Z,24.1
2018-12-24T08:53:04.301Z,24.6
2018-12-24T08:53:54.317Z,25.1
2018-12-24T08:54:44.102Z,25.6
2018-12-24T08:55:35.571Z,26.1
2018-12-24T08:56:25.016Z,26.6
2018-12-24T08:57:14.826Z,27.1
2018-12-24T08:58:04.859Z,27.6
2018-12-24T08:58:54.651Z,28
2018-12-24T08:59:44.999Z,28.4
2018-12-24T09:00:35.049Z,28.8
2018-12-24T09:16:27.075Z,35
2018-12-24T09:17:16.879Z,35.3
2018-12-24T09:18:06.930Z,35.7
2018-12-24T09:18:56.720Z,36.2
2018-12-24T09:19:47.034Z,36.7
2018-12-24T09:20:37.098Z,37.1
2018-12-24T09:21:27.133Z,37.4
2018-12-24T09:22:16.936Z,37.6
2018-12-24T09:23:06.982Z,37.7
2018-12-24T09:23:57.560Z,37.8
2018-12-24T09:24:47.375Z,37.9
2018-12-24T09:25:36.882Z,38
2018-12-24T09:26:27.217Z,38.4
2018-12-24T09:27:17.260Z,38.8
2018-12-24T09:28:07.312Z,39.1
2018-12-24T09:28:58.662Z,39.4
2018-12-24T09:29:47.432Z,39.6
2018-12-24T09:30:37.775Z,39.8
2018-12-24T09:31:27.841Z,40.1
2018-12-24T09:32:17.092Z,40.3
2018-12-24T09:33:07.940Z,40.4
2018-12-24T09:33:57.970Z,40.6
2018-12-24T09:34:47.499Z,40.7
2018-12-24T09:35:38.107Z,40.7
2018-12-24T09:36:27.954Z,40.6
2018-12-24T09:37:18.232Z,40.4
2018-12-24T09:38:08.284Z,40.3
2018-12-24T09:38:58.352Z,40.1
2018-12-24T09:39:47.847Z,40.1
2018-12-24T09:40:38.456Z,40.3
2018-12-24T09:41:28.519Z,40.5
2018-12-24T09:42:18.575Z,41
2018-12-24T09:43:08.628Z,41.5
2018-12-24T09:43:58.405Z,42.1
2018-12-24T09:44:48.738Z,42.6
2018-12-24T09:45:38.792Z,43.3
2018-12-24T09:46:28.578Z,43.5
2018-12-24T09:47:18.942Z,43.7
2018-12-24T09:48:08.960Z,43.8
2018-12-24T09:48:59.023Z,43.6
2018-12-24T09:49:49.080Z,43.5
2018-12-24T09:50:39.138Z,43.3
2018-12-24T09:51:28.995Z,43
2018-12-24T09:52:18.985Z,42.6
2018-12-24T09:53:09.311Z,42.3
2018-12-24T09:53:59.370Z,41.9
2018-12-24T09:54:49.430Z,41.6
2018-12-24T09:55:39.472Z,41.4
2018-12-24T09:56:29.542Z,41.1
2018-12-24T09:57:19.592Z,40.9
2018-12-24T09:58:09.385Z,40.7
2018-12-24T09:58:59.707Z,40.4
2018-12-24T09:59:49.609Z,40.3
2018-12-24T10:00:39.566Z,40.2
2018-12-24T10:01:29.879Z,40.1
2018-12-24T10:02:19.670Z,40.1
2018-12-24T10:03:09.992Z,40.2
2018-12-24T10:04:04.882Z,40.3
2018-12-24T10:04:49.837Z,40.3
2018-12-24T10:05:40.159Z,40.3
2018-12-24T10:06:29.944Z,40.2
2018-12-24T10:07:19.724Z,40
2018-12-24T10:08:10.067Z,39.8
2018-12-24T10:09:00.113Z,39.5
2018-12-24T10:09:50.177Z,39.2
2018-12-24T10:10:40.339Z,38.9
2018-12-24T10:11:30.289Z,38.4
2018-12-24T10:12:20.620Z,37.9
2018-12-24T10:13:10.664Z,37.3
2018-12-24T10:14:00.734Z,36.8
2018-12-24T10:14:50.793Z,36.3
2018-12-24T10:15:40.563Z,35.7
2018-12-24T10:16:30.899Z,35.3
2018-12-24T10:17:21.034Z,34.8
2018-12-24T10:18:11.015Z,34.4
2018-12-24T10:19:01.078Z,33.9
2018-12-24T10:19:51.125Z,33.5
2018-12-24T10:20:41.180Z,33.1
2018-12-24T10:21:31.238Z,32.8
2018-12-24T10:22:21.293Z,32.5
2018-12-24T10:23:11.413Z,32.3
2018-12-24T10:24:01.151Z,32.2
2018-12-24T10:24:51.465Z,32
2018-12-24T10:25:41.780Z,31.8
2018-12-24T10:26:31.308Z,31.6
2018-12-24T10:27:21.637Z,31.5
2018-12-24T10:28:11.472Z,31.5
2018-12-24T10:29:01.478Z,31.5
2018-12-24T10:29:51.543Z,31.6
2018-12-24T10:30:42.105Z,31.7
2018-12-24T10:31:31.920Z,31.8
2018-12-24T10:32:21.952Z,31.8
2018-12-24T10:33:12.002Z,31.9
2018-12-24T10:34:02.085Z,31.9
2018-12-24T10:34:51.667Z,32.1
2018-12-24T10:35:41.982Z,32.3
2018-12-24T10:36:32.382Z,32.6
2018-12-24T10:37:22.035Z,32.9
2018-12-24T10:38:12.604Z,33.1
2018-12-24T10:39:02.425Z,33.4
2018-12-24T10:39:52.002Z,33.6
2018-12-24T10:40:42.532Z,33.7
2018-12-24T10:41:32.604Z,33.7
2018-12-24T10:42:22.653Z,33.6
2018-12-24T10:43:12.421Z,33.6
2018-12-24T10:44:02.770Z,33.6
2018-12-24T10:44:52.576Z,33.6
2018-12-24T10:45:42.874Z,33.8
2018-12-24T10:46:32.172Z,33.9
2018-12-24T10:47:22.971Z,34.1
2018-12-24T10:48:13.049Z,34.3
2018-12-24T10:49:02.861Z,34.5
2018-12-24T10:49:52.604Z,34.6
2018-12-24T10:50:43.206Z,34.7
2018-12-24T10:51:33.261Z,34.8
2018-12-24T10:52:23.311Z,35.1
2018-12-24T10:53:12.826Z,35.4
2018-12-24T10:54:02.678Z,35.8
2018-12-24T10:54:52.731Z,36.4
2018-12-24T10:55:43.056Z,37
2018-12-24T10:56:32.773Z,37.8
2018-12-24T10:57:23.741Z,38.7
2018-12-24T10:58:13.233Z,39.6
2018-12-24T10:59:03.995Z,40.4
2018-12-24T10:59:53.351Z,41.1
2018-12-24T11:00:43.138Z,41.9
2018-12-24T11:01:33.455Z,42.4
2018-12-24T11:02:23.806Z,42.9
2018-12-24T11:03:13.308Z,43.2
2018-12-24T11:04:03.705Z,43.6
2018-12-24T11:04:53.930Z,43.9
2018-12-24T11:05:43.740Z,44.2
2018-12-24T11:06:33.535Z,44.5
2018-12-24T11:07:23.861Z,44.8
2018-12-24T11:08:13.642Z,45.2
2018-12-24T11:09:03.963Z,45.4
2018-12-24T11:09:54.313Z,45.6
2018-12-24T11:10:44.082Z,45.9
2018-12-24T11:11:33.858Z,46.1
2018-12-24T11:12:24.197Z,46.3
2018-12-24T11:13:14.250Z,46.4
2018-12-24T11:14:04.027Z,46.5
2018-12-24T11:14:54.069Z,46.6
2018-12-24T11:15:44.417Z,46.6
2018-12-24T11:16:34.477Z,46.7
2018-12-24T11:17:24.525Z,46.9
2018-12-24T11:18:14.590Z,47.1
2018-12-24T11:19:04.380Z,47.3
2018-12-24T11:19:55.558Z,47.4
2018-12-24T11:20:44.760Z,47.7
2018-12-24T11:21:34.830Z,47.8
2018-12-24T11:22:24.881Z,47.9
2018-12-24T11:23:15.347Z,47.9
2018-12-24T11:24:04.987Z,47.9
2018-12-24T11:24:55.091Z,47.8
2018-12-24T11:25:45.094Z,47.6
2018-12-24T11:26:35.151Z,47.4
2018-12-24T11:27:25.219Z,47.3
2018-12-24T11:28:15.277Z,47.2
2018-12-24T11:29:05.326Z,47.1
2018-12-24T11:29:55.688Z,47.1
2018-12-24T11:30:45.166Z,47.1
2018-12-24T11:31:35.503Z,46.9
2018-12-24T11:32:25.286Z,46.6
2018-12-24T11:33:15.629Z,46.3
2018-12-24T11:34:05.683Z,45.8
2018-12-24T11:34:55.803Z,45.6
2018-12-24T11:35:46.081Z,45.3
2018-12-24T11:36:35.585Z,44.9
2018-12-24T11:37:26.387Z,44.8
2018-12-24T11:38:15.961Z,44.4
2018-12-24T11:39:06.270Z,44.2
2018-12-24T11:39:55.808Z,43.9
2018-12-24T11:40:46.676Z,43.4
2018-12-24T11:41:35.913Z,42.9
2018-12-24T11:42:28.099Z,42.5
2018-12-24T11:43:15.846Z,41.9
2018-12-24T11:44:06.297Z,41.4
2018-12-24T11:44:56.142Z,40.9
2018-12-24T11:45:46.224Z,40.4
2018-12-24T11:46:37.013Z,39.9
2018-12-24T11:47:27.072Z,39.4
2018-12-24T11:48:16.740Z,38.9
2018-12-24T11:49:06.670Z,38.6
2018-12-24T11:49:56.755Z,38.1
2018-12-24T11:50:46.820Z,37.8
2018-12-24T11:51:37.067Z,37.4
2018-12-24T11:52:27.022Z,36.9
2018-12-24T11:53:17.457Z,36.6
2018-12-24T11:54:07.517Z,36.2
2018-12-24T11:54:57.583Z,35.8
2018-12-24T11:55:47.148Z,35.5
2018-12-24T11:56:37.222Z,35.3
2018-12-24T11:57:27.855Z,34.9
2018-12-24T11:58:18.770Z,34.7
2018-12-24T11:59:07.117Z,34.4
2018-12-24T11:59:57.929Z,34.2
2018-12-24T12:00:47.692Z,34
2018-12-24T12:01:37.754Z,33.8
2018-12-24T12:02:27.612Z,33.6
2018-12-24T12:03:17.870Z,33.4
2018-12-24T12:04:07.730Z,33.3
2018-12-24T12:04:57.789Z,33
2018-12-24T12:05:47.839Z,32.8
2018-12-24T12:06:37.942Z,32.4